Time,TemperatureF,DewpointF,PressureIn,WindDirection,WindDirectionDegrees,WindSpeedMPH,WindSpeedGustMPH,Humidity,HourlyPrecipIn,Conditions,Clouds,dailyrainin,SoftwareType,DateUTC
2013-09-13 00:07:00,69.9,69.0,29.68,SW,229,2.0,8.0,97,0.00,,,0.00,weatherlink.com 1.10,2013-09-13 04:07:00,
2013-09-13 00:22:00,69.9,69.0,29.68,SSW,213,4.0,6.0,97,0.00,,,0.00,weatherlink.com 1.10,2013-09-13 04:22:00,
2013-09-13 00:37:00,70.0,69.0,29.67,SSW,203,1.0,-999.0,97,-99.99,,,0.00,weatherlink.com 1.10,2013-09-13 04:37:00,
2013-09-13 00:52:00,69.9,69.0,29.67,SSW,193,3.0,8.0,96,0.00,,,0.00,weatherlink.com 1.10,2013-09-13 04:52:00,
2013-09-13 01:07:00,69.6,69.0,29.66,South,177,2.0,6.0,96,0.00,,,0.00,weatherlink.com 1.10,2013-09-13 05:07:00,
2013-09-13 01:22:00,70.1,69.0,29.65,SSE,160,1.0,10.0,97,0.00,,,0.00,weatherlink.com 1.10,2013-09-13 05:22:00,
2013-09-13 01:37:00,70.4,69.0,29.65,South,173,1.0,10.0,96,0.00,,,0.00,weatherlink.com 1.10,2013-09-13 05:37:00,
2013-09-13 01:52:00,70.8,70.0,29.64,SSW,201,2.0,14.0,96,0.00,,,0.00,weatherlink.com 1.10,2013-09-13 05:52:00,
2013-09-13 02:07:00,70.7,70.0,29.63,South,170,2.0,8.0,96,0.00,,,0.00,weatherlink.com 1.10,2013-09-13 06:07:00,
2013-09-13 02:22:00,70.5,69.0,29.62,West,269,7.0,8.0,96,0.00,,,0.00,weatherlink.com 1.10,2013-09-13 06:22:00,
2013-09-13 02:37:00,-999.0,-99.9,29.62,North,-999,-999.0,-999.0,-999,0.00,,,0.00,weatherlink.com 1.10,2013-09-13 06:37:00,
2013-09-13 02:52:00,-999.0,-99.9,29.61,North,-999,-999.0,-999.0,-999,0.00,,,0.00,weatherlink.com 1.10,2013-09-13 06:52:00,
2013-09-13 03:07:00,-999.0,-99.9,29.61,North,-999,-999.0,-999.0,-999,0.00,,,0.00,weatherlink.com 1.10,2013-09-13 07:07:00,
2013-09-13 03:22:00,-999.0,-99.9,29.60,North,-999,-999.0,-999.0,-999,0.00,,,0.00,weatherlink.com 1.10,2013-09-13 07:22:00,
2013-09-13 03:37:00,-999.0,-99.9,29.60,North,-999,-999.0,-999.0,-999,0.00,,,0.00,weatherlink.com 1.10,2013-09-13 07:37:00,
2013-09-13 03:52:00,-999.0,-99.9,29.60,North,-999,-999.0,-999.0,-999,0.00,,,0.00,weatherlink.com 1.10,2013-09-13 07:52:00,
2013-09-13 04:07:00,-999.0,-99.9,29.60,North,-999,-999.0,-999.0,-999,0.00,,,0.00,weatherlink.com 1.10,2013-09-13 08:07:00,
2013-09-13 04:22:00,-999.0,-99.9,29.59,North,-999,-999.0,-999.0,-999,0.00,,,0.00,weatherlink.com 1.10,2013-09-13 08:22:00,
2013-09-13 04:37:00,-999.0,-99.9,29.59,North,-999,-999.0,-999.0,-999,0.00,,,0.00,weatherlink.com 1.10,2013-09-13 08:37:00,
2013-09-13 04:52:00,-999.0,-99.9,29.59,North,-999,-999.0,-999.0,-999,0.00,,,0.00,weatherlink.com 1.10,2013-09-13 08:52:00,
2013-09-13 05:08:00,-999.0,-99.9,29.59,North,-999,-999.0,-999.0,-999,0.00,,,0.00,weatherlink.com 1.10,2013-09-13 09:08:00,
2013-09-13 05:23:00,-999.0,-99.9,29.58,North,-999,-999.0,-999.0,-999,0.00,,,0.00,weatherlink.com 1.10,2013-09-13 09:23:00,
2013-09-13 05:38:00,-999.0,-99.9,29.58,North,-999,-999.0,-999.0,-999,0.00,,,0.00,weatherlink.com 1.10,2013-09-13 09:38:00,
2013-09-13 05:53:00,-999.0,-99.9,29.58,North,-999,-999.0,-999.0,-999,0.00,,,0.00,weatherlink.com 1.10,2013-09-13 09:53:00,
2013-09-13 06:08:00,-999.0,-99.9,29.58,North,-999,-999.0,-999.0,-999,0.00,,,0.00,weatherlink.com 1.10,2013-09-13 10:08:00,
2013-09-13 06:23:00,-999.0,-99.9,29.58,North,-999,-999.0,-999.0,-999,0.00,,,0.00,weatherlink.com 1.10,2013-09-13 10:23:00,
2013-09-13 06:38:00,-999.0,-99.9,29.58,North,-999,-999.0,-999.0,-999,0.00,,,0.00,weatherlink.com 1.10,2013-09-13 10:38:00,
2013-09-13 06:53:00,-999.0,-99.9,29.58,North,-999,-999.0,-999.0,-999,0.00,,,0.00,weatherlink.com 1.10,2013-09-13 10:53:00,
2013-09-13 07:08:00,-999.0,-99.9,29.59,North,-999,-999.0,-999.0,-999,0.00,,,0.00,weatherlink.com 1.10,2013-09-13 11:08:00,
2013-09-13 07:23:00,-999.0,-99.9,29.59,North,-999,-999.0,-999.0,-999,0.00,,,0.00,weatherlink.com 1.10,2013-09-13 11:23:00,
2013-09-13 07:38:00,-999.0,-99.9,29.58,North,-999,-999.0,-999.0,-999,0.00,,,0.00,weatherlink.com 1.10,2013-09-13 11:38:00,
2013-09-13 07:53:00,-999.0,-99.9,29.58,North,-999,-999.0,-999.0,-999,0.00,,,0.00,weatherlink.com 1.10,2013-09-13 11:53:00,
2013-09-13 08:08:00,-999.0,-99.9,29.58,North,-999,-999.0,-999.0,-999,0.00,,,0.00,weatherlink.com 1.10,2013-09-13 12:08:00,
2013-09-13 08:24:00,-999.0,-99.9,29.58,North,-999,-999.0,-999.0,-999,0.00,,,0.00,weatherlink.com 1.10,2013-09-13 12:24:00,
2013-09-13 08:39:00,-999.0,-99.9,29.58,North,-999,-999.0,-999.0,-999,0.00,,,0.00,weatherlink.com 1.10,2013-09-13 12:39:00,
2013-09-13 08:54:00,70.7,70.0,29.58,South,188,1.0,5.0,98,0.00,,,0.00,weatherlink.com 1.10,2013-09-13 12:54:00,
2013-09-13 09:09:00,70.5,70.0,29.57,SSW,210,1.0,5.0,97,0.00,,,0.00,weatherlink.com 1.10,2013-09-13 13:09:00,
2013-09-13 09:24:00,70.5,70.0,29.58,SW,224,0.0,5.0,98,0.00,,,0.00,weatherlink.com 1.10,2013-09-13 13:24:00,
2013-09-13 09:39:00,70.7,70.0,29.59,WSW,257,3.0,7.0,98,0.00,,,0.00,weatherlink.com 1.10,2013-09-13 13:39:00,
2013-09-13 09:54:00,70.4,70.0,29.58,NW,304,2.0,5.0,98,0.00,,,0.00,weatherlink.com 1.10,2013-09-13 13:54:00,
2013-09-13 10:09:00,70.3,70.0,29.57,WNW,295,3.0,3.0,98,0.00,,,0.00,weatherlink.com 1.10,2013-09-13 14:09:00,
2013-09-13 10:24:00,70.4,70.0,29.57,WNW,288,3.0,4.0,98,0.00,,,0.00,weatherlink.com 1.10,2013-09-13 14:24:00,
2013-09-13 10:39:00,70.4,70.0,29.58,NNW,333,0.0,3.0,98,0.02,,,0.02,weatherlink.com 1.10,2013-09-13 14:39:00,
2013-09-13 10:54:00,70.6,70.0,29.58,WNW,295,3.0,3.0,98,0.02,,,0.02,weatherlink.com 1.10,2013-09-13 14:54:00,
2013-09-13 11:09:00,71.0,70.0,29.57,NW,312,0.0,3.0,97,0.02,,,0.02,weatherlink.com 1.10,2013-09-13 15:09:00,
2013-09-13 11:24:00,71.3,70.0,29.57,NNW,329,0.0,0.0,97,0.01,,,0.02,weatherlink.com 1.10,2013-09-13 15:24:00,
2013-09-13 11:39:00,72.2,71.0,29.57,WNW,299,0.0,4.0,96,0.00,,,0.02,weatherlink.com 1.10,2013-09-13 15:39:00,
2013-09-13 11:54:00,72.0,70.0,29.58,NNW,338,2.0,3.0,94,0.00,,,0.02,weatherlink.com 1.10,2013-09-13 15:54:00,
2013-09-13 12:09:00,72.1,70.0,29.57,NE,40,2.0,3.0,93,0.00,,,0.02,weatherlink.com 1.10,2013-09-13 16:09:00,
2013-09-13 12:24:00,71.8,70.0,29.56,NE,41,0.0,2.0,93,0.00,,,0.02,weatherlink.com 1.10,2013-09-13 16:24:00,
2013-09-13 12:39:00,72.9,71.0,29.56,NW,305,1.0,3.0,94,0.00,,,0.02,weatherlink.com 1.10,2013-09-13 16:39:00,
2013-09-13 12:54:00,73.4,71.0,29.56,NW,309,3.0,7.0,91,0.00,,,0.02,weatherlink.com 1.10,2013-09-13 16:54:00,
2013-09-13 13:09:00,73.5,70.0,29.56,NNW,338,2.0,7.0,89,0.00,,,0.02,weatherlink.com 1.10,2013-09-13 17:09:00,
2013-09-13 13:24:00,74.0,70.0,29.55,WNW,286,5.0,6.0,88,0.00,,,0.02,weatherlink.com 1.10,2013-09-13 17:24:00,
2013-09-13 13:39:00,74.1,70.0,29.55,WNW,301,4.0,8.0,87,0.00,,,0.02,weatherlink.com 1.10,2013-09-13 17:39:00,
2013-09-13 13:54:00,74.8,71.0,29.54,NNW,333,3.0,6.0,87,0.00,,,0.02,weatherlink.com 1.10,2013-09-13 17:54:00,
2013-09-13 14:09:00,75.0,70.0,29.54,NW,305,5.0,10.0,83,0.00,,,0.02,weatherlink.com 1.10,2013-09-13 18:09:00,
2013-09-13 14:24:00,75.5,70.0,29.55,WNW,297,4.0,8.0,83,0.00,,,0.02,weatherlink.com 1.10,2013-09-13 18:24:00,
2013-09-13 14:39:00,75.7,69.0,29.55,NW,305,2.0,7.0,79,0.00,,,0.02,weatherlink.com 1.10,2013-09-13 18:39:00,
2013-09-13 14:54:00,75.0,70.0,29.55,NNE,12,1.0,8.0,84,0.00,,,0.02,weatherlink.com 1.10,2013-09-13 18:54:00,
2013-09-13 15:09:00,74.5,70.0,29.56,SSE,166,2.0,7.0,86,0.00,,,0.02,weatherlink.com 1.10,2013-09-13 19:09:00,
2013-09-13 15:24:00,75.0,70.0,29.55,WNW,297,1.0,6.0,85,0.00,,,0.02,weatherlink.com 1.10,2013-09-13 19:24:00,
2013-09-13 15:39:00,74.9,70.0,29.55,WSW,246,1.0,7.0,84,0.00,,,0.02,weatherlink.com 1.10,2013-09-13 19:39:00,
2013-09-13 15:54:00,75.3,70.0,29.56,ENE,75,0.0,6.0,84,0.00,,,0.02,weatherlink.com 1.10,2013-09-13 19:54:00,
2013-09-13 16:09:00,75.5,70.0,29.56,NNW,343,4.0,6.0,84,0.00,,,0.02,weatherlink.com 1.10,2013-09-13 20:09:00,
2013-09-13 16:24:00,74.6,69.0,29.56,WNW,294,2.0,8.0,83,0.00,,,0.02,weatherlink.com 1.10,2013-09-13 20:24:00,
2013-09-13 16:39:00,74.4,69.0,29.56,SW,221,4.0,9.0,82,0.00,,,0.02,weatherlink.com 1.10,2013-09-13 20:39:00,
2013-09-13 16:54:00,74.1,68.0,29.57,North,1,7.0,8.0,82,0.00,,,0.02,weatherlink.com 1.10,2013-09-13 20:54:00,
2013-09-13 17:09:00,74.6,69.0,29.56,SW,233,2.0,8.0,82,0.00,,,0.02,weatherlink.com 1.10,2013-09-13 21:09:00,
2013-09-13 17:24:00,73.6,69.0,29.57,West,272,2.0,9.0,85,0.00,,,0.00,weatherlink.com 1.10,2013-09-13 21:24:00,
2013-09-13 17:39:00,72.6,69.0,29.57,West,262,1.0,6.0,87,0.00,,,0.00,weatherlink.com 1.10,2013-09-13 21:39:00,
2013-09-13 17:54:00,71.6,68.0,29.58,North,8,0.0,7.0,89,0.00,,,0.00,weatherlink.com 1.10,2013-09-13 21:54:00,
2013-09-13 18:10:00,71.0,68.0,29.58,SW,235,8.0,12.0,89,0.00,,,0.00,weatherlink.com 1.10,2013-09-13 22:10:00,
2013-09-13 18:25:00,70.7,68.0,29.58,NNE,20,0.0,9.0,90,0.00,,,0.00,weatherlink.com 1.10,2013-09-13 22:25:00,
2013-09-13 18:40:00,70.3,67.0,29.59,NNW,348,0.0,5.0,90,0.00,,,0.00,weatherlink.com 1.10,2013-09-13 22:40:00,
2013-09-13 18:55:00,69.8,67.0,29.59,WSW,250,1.0,3.0,91,0.00,,,0.00,weatherlink.com 1.10,2013-09-13 22:55:00,
2013-09-13 19:10:00,69.1,66.0,29.60,SSW,198,0.0,3.0,91,0.00,,,0.00,weatherlink.com 1.10,2013-09-13 23:10:00,
2013-09-13 19:25:00,68.6,66.0,29.61,WSW,256,0.0,1.0,91,0.00,,,0.00,weatherlink.com 1.10,2013-09-13 23:25:00,
2013-09-13 19:40:00,68.2,66.0,29.61,SW,222,0.0,2.0,92,0.00,,,0.00,weatherlink.com 1.10,2013-09-13 23:40:00,
2013-09-13 19:55:00,67.8,66.0,29.62,SW,233,1.0,3.0,92,0.00,,,0.00,weatherlink.com 1.10,2013-09-13 23:55:00,
2013-09-13 20:10:00,67.7,65.0,29.63,SW,219,0.0,2.0,92,0.00,,,0.00,weatherlink.com 1.10,2013-09-14 00:10:00,
2013-09-13 20:25:00,67.6,65.0,29.64,NW,307,2.0,3.0,92,0.00,,,0.00,weatherlink.com 1.10,2013-09-14 00:25:00,
2013-09-13 20:40:00,67.9,66.0,29.64,NW,323,6.0,8.0,92,0.00,,,0.00,weatherlink.com 1.10,2013-09-14 00:40:00,
2013-09-13 20:55:00,68.9,66.0,29.65,NW,307,6.0,10.0,90,0.00,,,0.00,weatherlink.com 1.10,2013-09-14 00:55:00,
2013-09-13 21:10:00,69.2,66.0,29.65,NW,314,5.0,12.0,89,0.00,,,0.00,weatherlink.com 1.10,2013-09-14 01:10:00,
2013-09-13 21:25:00,69.1,65.0,29.66,NNW,342,14.0,17.0,86,0.00,,,0.00,weatherlink.com 1.10,2013-09-14 01:25:00,
2013-09-13 21:40:00,69.1,65.0,29.66,North,352,14.0,15.0,86,0.00,,,0.00,weatherlink.com 1.10,2013-09-14 01:40:00,
2013-09-13 21:55:00,69.0,65.0,29.66,NNW,343,11.0,16.0,86,0.00,,,0.00,weatherlink.com 1.10,2013-09-14 01:55:00,
2013-09-13 22:11:00,68.8,65.0,29.66,North,8,11.0,16.0,86,0.00,,,0.00,weatherlink.com 1.10,2013-09-14 02:11:00,
2013-09-13 22:25:00,68.3,64.0,29.67,NW,322,11.0,16.0,87,0.00,,,0.00,weatherlink.com 1.10,2013-09-14 02:25:00,
2013-09-13 22:40:00,68.2,64.0,29.67,NNE,14,14.0,18.0,86,0.00,,,0.00,weatherlink.com 1.10,2013-09-14 02:40:00,
2013-09-13 22:55:00,67.7,63.0,29.67,NNE,12,10.0,17.0,84,0.00,,,0.00,weatherlink.com 1.10,2013-09-14 02:55:00,
2013-09-13 23:10:00,67.4,63.0,29.67,North,360,8.0,14.0,86,0.00,,,0.00,weatherlink.com 1.10,2013-09-14 03:10:00,
2013-09-13 23:25:00,67.2,63.0,29.68,NNW,340,7.0,14.0,85,0.00,,,0.00,weatherlink.com 1.10,2013-09-14 03:25:00,
2013-09-13 23:40:00,67.0,63.0,29.68,NNW,328,8.0,13.0,88,0.00,,,0.00,weatherlink.com 1.10,2013-09-14 03:40:00,
2013-09-13 23:55:00,66.9,63.0,29.68,NNW,343,8.0,16.0,88,0.00,,,0.00,weatherlink.com 1.10,2013-09-14 03:55:00,